Time;durP1;ratioP1;P1;durP2;ratioP2;P2;SDS_P1;SDS_P2;PMS_P1;PMS_P2;Temp;Humidity;BMP_temperature;BMP_pressure;BME280_temperature;BME280_humidity;BME280_pressure;Samples;Min_cycle;Max_cycle;Signal;HPM_P1;HPM_P2
2022/04/27 00:01:17;;;;;;;;;;;17.40;94.50;;;;;;5006223;28;19929;-59
2022/04/27 00:03:44;;;;;;;;;;;17.40;94.50;;;;;;4988404;28;20269;-58
2022/04/27 00:06:12;;;;;;;;;;;17.40;94.50;;;;;;4998750;28;19929;-58
2022/04/27 00:08:39;;;;;;;;;;;17.40;94.50;;;;;;4994677;28;19933;-54
2022/04/27 00:11:06;;;;;;;;;;;17.40;94.50;;;;;;4988259;28;19930;-56
2022/04/27 00:13:33;;;;;;;;;;;17.40;94.50;;;;;;4988893;28;19930;-55
2022/04/27 00:16:00;;;;;;;;;;;17.40;94.50;;;;;;5017082;28;20313;-56
2022/04/27 00:18:27;;;;;;;;;;;17.40;94.50;;;;;;4996740;28;20641;-58
2022/04/27 00:20:54;;;;;;;;;;;17.40;94.50;;;;;;4993706;28;20512;-58
2022/04/27 00:23:25;;;;;;;;;;;17.40;94.50;;;;;;4999938;28;20417;-58
2022/04/27 00:25:52;;;;;;;;;;;17.40;94.50;;;;;;4988621;28;20742;-57
2022/04/27 00:28:19;;;;;;;;;;;17.40;94.50;;;;;;5005154;28;20316;-55
2022/04/27 00:30:47;;;;;;;;;;;17.40;94.50;;;;;;5010045;28;19934;-55
2022/04/27 00:33:15;;;;;;;;;;;17.40;94.50;;;;;;4989186;28;20309;-58
2022/04/27 00:35:42;;;;;;;;;;;17.40;94.50;;;;;;4995072;28;19929;-57
2022/04/27 00:38:09;;;;;;;;;;;17.40;94.50;;;;;;5004654;28;20313;-57
2022/04/27 00:40:37;;;;;;;;;;;17.40;94.50;;;;;;5012586;28;19945;-59
2022/04/27 00:43:04;;;;;;;;;;;17.40;94.80;;;;;;4997632;28;20332;-57
2022/04/27 00:45:31;;;;;;;;;;;17.40;94.50;;;;;;5003226;28;19929;-58
2022/04/27 00:47:58;;;;;;;;;;;17.40;94.80;;;;;;4989285;28;19929;-55
2022/04/27 00:50:26;;;;;;;;;;;17.40;94.50;;;;;;4999746;28;19959;-57
2022/04/27 00:52:53;;;;;;;;;;;17.40;94.50;;;;;;4987045;28;19937;-57
2022/04/27 00:55:21;;;;;;;;;;;17.40;94.50;;;;;;4994611;28;19933;-55
2022/04/27 00:57:48;;;;;;;;;;;17.40;94.60;;;;;;5002672;28;20401;-57
2022/04/27 01:00:16;;;;;;;;;;;17.40;94.60;;;;;;5002138;28;19926;-59
2022/04/27 01:02:43;;;;;;;;;;;17.30;94.60;;;;;;4997161;28;19959;-56
2022/04/27 01:05:11;;;;;;;;;;;17.30;94.60;;;;;;4992315;28;19937;-56
2022/04/27 01:07:39;;;;;;;;;;;17.30;94.50;;;;;;5006043;28;19925;-58
2022/04/27 01:10:07;;;;;;;;;;;17.40;94.50;;;;;;5003046;28;19938;-56
2022/04/27 01:12:35;;;;;;;;;;;17.30;94.50;;;;;;4993864;28;19953;-56
2022/04/27 01:15:08;;;;;;;;;;;17.40;94.50;;;;;;4994960;28;19936;-53
2022/04/27 01:17:36;;;;;;;;;;;17.40;94.50;;;;;;4998293;28;20601;-57
2022/04/27 01:20:04;;;;;;;;;;;17.30;94.50;;;;;;5000113;28;19945;-58
2022/04/27 01:22:32;;;;;;;;;;;17.30;94.50;;;;;;5023346;28;19945;-57
2022/04/27 01:24:59;;;;;;;;;;;17.30;94.50;;;;;;5006067;28;19932;-57
2022/04/27 01:27:26;;;;;;;;;;;17.30;94.50;;;;;;4998811;28;19933;-57
2022/04/27 01:29:53;;;;;;;;;;;17.30;94.50;;;;;;4999437;28;19929;-57
2022/04/27 01:32:20;;;;;;;;;;;17.30;94.50;;;;;;5005351;28;19926;-56
2022/04/27 01:34:47;;;;;;;;;;;17.30;94.50;;;;;;5009025;28;19953;-56
2022/04/27 01:40:00;;;;;;;;;;;17.30;94.60;;;;;;5005765;28;19925;-55
2022/04/27 01:42:27;;;;;;;;;;;17.30;94.50;;;;;;5008410;28;19930;-55
2022/04/27 01:44:55;;;;;;;;;;;17.30;94.60;;;;;;4997581;28;19929;-58
2022/04/27 01:47:22;;;;;;;;;;;17.30;94.60;;;;;;5026903;28;19936;-58
2022/04/27 01:49:50;;;;;;;;;;;17.30;94.50;;;;;;4997790;28;19937;-58
2022/04/27 01:55:02;;;;;;;;;;;17.30;94.50;;;;;;4999178;28;19930;-56
2022/04/27 01:57:31;;;;;;;;;;;17.30;94.50;;;;;;4999390;28;20052;-57
2022/04/27 01:59:59;;;;;;;;;;;17.30;94.60;;;;;;5002745;28;19930;-57
2022/04/27 02:02:27;;;;;;;;;;;17.30;94.50;;;;;;5026540;28;19941;-58
2022/04/27 02:04:57;;;;;;;;;;;17.30;94.50;;;;;;4996217;28;19936;-57
2022/04/27 02:07:25;;;;;;;;;;;17.30;94.50;;;;;;5002435;28;19945;-57
2022/04/27 02:09:53;;;;;;;;;;;17.30;94.50;;;;;;4995322;28;19929;-55
2022/04/27 02:12:20;;;;;;;;;;;17.30;94.50;;;;;;5021618;28;19948;-57
2022/04/27 02:14:58;;;;;;;;;;;17.30;94.50;;;;;;5002008;28;19930;-55
2022/04/27 02:17:25;;;;;;;;;;;17.30;94.50;;;;;;5011145;28;19930;-58
2022/04/27 02:19:53;;;;;;;;;;;17.30;94.50;;;;;;5007441;28;19929;-56
2022/04/27 02:22:20;;;;;;;;;;;17.20;94.50;;;;;;4997795;28;19925;-56
2022/04/27 02:24:48;;;;;;;;;;;17.20;94.60;;;;;;5004711;28;19930;-58
2022/04/27 02:27:15;;;;;;;;;;;17.20;94.60;;;;;;4989044;28;19948;-56
2022/04/27 02:29:42;;;;;;;;;;;17.20;94.50;;;;;;5002295;28;19929;-57
2022/04/27 02:32:19;;;;;;;;;;;17.20;94.60;;;;;;5004090;28;19925;-56
2022/04/27 02:34:48;;;;;;;;;;;17.20;94.50;;;;;;5038255;28;19949;-56
2022/04/27 02:37:15;;;;;;;;;;;17.20;94.60;;;;;;4992123;28;19926;-56
2022/04/27 02:39:44;;;;;;;;;;;17.30;94.50;;;;;;5007490;28;19929;-54
2022/04/27 02:42:11;;;;;;;;;;;17.20;94.50;;;;;;5002705;28;19925;-55
2022/04/27 02:44:39;;;;;;;;;;;17.20;94.50;;;;;;5000285;28;20309;-57
2022/04/27 02:47:06;;;;;;;;;;;17.20;94.50;;;;;;5010789;28;19925;-53
2022/04/27 02:52:21;;;;;;;;;;;17.20;94.60;;;;;;4993764;28;19934;-59
2022/04/27 02:55:12;;;;;;;;;;;17.20;94.80;;;;;;4997389;28;19930;-55
2022/04/27 02:57:39;;;;;;;;;;;17.20;94.60;;;;;;5008737;28;19948;-54
2022/04/27 03:00:07;;;;;;;;;;;17.20;94.50;;;;;;5011538;28;20432;-55
2022/04/27 03:02:34;;;;;;;;;;;17.20;94.50;;;;;;5001981;28;19936;-54
2022/04/27 03:05:05;;;;;;;;;;;17.20;94.60;;;;;;5005777;28;20389;-54
2022/04/27 03:07:32;;;;;;;;;;;17.20;94.60;;;;;;4989497;28;19936;-56
2022/04/27 03:09:59;;;;;;;;;;;17.20;94.60;;;;;;4998307;28;19926;-56
2022/04/27 03:12:26;;;;;;;;;;;17.20;94.60;;;;;;4993357;28;19925;-54
2022/04/27 03:14:55;;;;;;;;;;;17.20;94.60;;;;;;5003990;28;20375;-54
2022/04/27 03:17:22;;;;;;;;;;;17.20;94.60;;;;;;5010475;28;19929;-55
2022/04/27 03:19:56;;;;;;;;;;;17.20;94.60;;;;;;5003523;28;20389;-58
2022/04/27 03:22:23;;;;;;;;;;;17.20;94.50;;;;;;5002443;28;19936;-56
2022/04/27 03:24:50;;;;;;;;;;;17.20;94.50;;;;;;5001947;28;19953;-55
2022/04/27 03:27:21;;;;;;;;;;;17.20;94.50;;;;;;4988075;28;19926;-57
2022/04/27 03:29:49;;;;;;;;;;;17.20;94.50;;;;;;4996843;28;19929;-58
2022/04/27 03:32:17;;;;;;;;;;;17.20;94.60;;;;;;5037186;28;19967;-57
2022/04/27 03:34:50;;;;;;;;;;;17.20;94.50;;;;;;4995933;28;19942;-56
2022/04/27 03:37:20;;;;;;;;;;;17.20;94.60;;;;;;4988224;28;19948;-56
2022/04/27 03:39:47;;;;;;;;;;;17.20;94.60;;;;;;5007410;28;20357;-57
2022/04/27 03:42:18;;;;;;;;;;;17.20;94.50;;;;;;4991405;28;19934;-57
2022/04/27 03:44:51;;;;;;;;;;;17.20;94.60;;;;;;5007396;28;19933;-57
2022/04/27 03:47:22;;;;;;;;;;;17.20;94.60;;;;;;5002002;28;19937;-57
2022/04/27 03:49:49;;;;;;;;;;;17.10;94.60;;;;;;5003326;28;19930;-56
2022/04/27 03:52:16;;;;;;;;;;;17.20;94.60;;;;;;5005297;28;19929;-55
2022/04/27 03:54:47;;;;;;;;;;;17.20;94.50;;;;;;4991693;28;19930;-56
2022/04/27 03:57:15;;;;;;;;;;;17.10;94.50;;;;;;5002221;28;19926;-57
2022/04/27 03:59:42;;;;;;;;;;;17.20;94.50;;;;;;4996178;28;19929;-55
2022/04/27 04:02:11;;;;;;;;;;;17.20;94.50;;;;;;4997216;28;19933;-56
2022/04/27 04:04:39;;;;;;;;;;;17.20;94.60;;;;;;4987682;28;19930;-58
2022/04/27 04:07:06;;;;;;;;;;;17.10;94.60;;;;;;5002377;28;20396;-53
2022/04/27 04:09:46;;;;;;;;;;;17.10;94.50;;;;;;4992031;28;20664;-53
2022/04/27 04:12:13;;;;;;;;;;;17.10;94.50;;;;;;4999711;28;19930;-55
2022/04/27 04:15:09;;;;;;;;;;;17.10;94.50;;;;;;5000901;28;19925;-56
2022/04/27 04:17:47;;;;;;;;;;;17.10;94.60;;;;;;4990278;28;19945;-58
2022/04/27 04:20:53;;;;;;;;;;;17.10;94.60;;;;;;4988925;28;19933;-58
2022/04/27 04:23:29;;;;;;;;;;;17.10;94.60;;;;;;4963040;28;19930;-57
2022/04/27 04:28:51;;;;;;;;;;;17.10;94.60;;;;;;5001820;28;20297;-57
2022/04/27 04:31:19;;;;;;;;;;;17.10;94.60;;;;;;4997408;28;19933;-56
2022/04/27 04:34:04;;;;;;;;;;;17.10;94.60;;;;;;4991548;28;19930;-55
2022/04/27 04:36:32;;;;;;;;;;;17.10;94.60;;;;;;4995057;28;19937;-57
2022/04/27 04:38:59;;;;;;;;;;;17.10;94.60;;;;;;4991427;28;20405;-57
2022/04/27 04:41:30;;;;;;;;;;;17.10;94.60;;;;;;5002812;28;19933;-55
2022/04/27 04:43:58;;;;;;;;;;;17.10;94.60;;;;;;5013544;28;19929;-59
2022/04/27 04:46:28;;;;;;;;;;;17.10;94.60;;;;;;5049933;28;20702;-54
2022/04/27 04:49:20;;;;;;;;;;;17.10;94.60;;;;;;5009169;28;19925;-57
2022/04/27 04:52:07;;;;;;;;;;;17.10;94.50;;;;;;5006776;28;19930;-55
2022/04/27 04:54:57;;;;;;;;;;;17.10;94.60;;;;;;5006121;28;20333;-57
2022/04/27 04:57:35;;;;;;;;;;;17.10;94.60;;;;;;5005213;28;19926;-57
2022/04/27 05:00:12;;;;;;;;;;;17.10;94.60;;;;;;4992801;28;20429;-54
2022/04/27 05:02:51;;;;;;;;;;;17.10;94.60;;;;;;5004421;28;19937;-56
2022/04/27 05:05:24;;;;;;;;;;;17.10;94.60;;;;;;4998776;28;19926;-58
2022/04/27 05:08:07;;;;;;;;;;;17.20;94.50;;;;;;4991505;28;19949;-56
2022/04/27 05:11:10;;;;;;;;;;;17.30;94.30;;;;;;5005232;28;19926;-54
2022/04/27 05:13:58;;;;;;;;;;;17.30;94.20;;;;;;5000947;28;19933;-56
2022/04/27 05:16:51;;;;;;;;;;;17.40;94.10;;;;;;5001537;28;19933;-57
2022/04/27 05:19:41;;;;;;;;;;;17.40;94.10;;;;;;5004034;28;19925;-56
2022/04/27 05:22:40;;;;;;;;;;;17.50;94.00;;;;;;4991738;28;19929;-56
2022/04/27 05:25:28;;;;;;;;;;;17.50;94.00;;;;;;4997497;28;19929;-56
2022/04/27 05:28:05;;;;;;;;;;;17.50;93.90;;;;;;4991346;28;19929;-56
2022/04/27 05:34:01;;;;;;;;;;;17.60;93.90;;;;;;4989981;28;19937;-58
2022/04/27 05:36:40;;;;;;;;;;;17.60;93.80;;;;;;5006728;28;19937;-57
2022/04/27 05:39:18;;;;;;;;;;;17.60;93.80;;;;;;5005357;28;20511;-59
2022/04/27 05:42:09;;;;;;;;;;;17.60;93.70;;;;;;5004731;28;19929;-58
2022/04/27 05:44:55;;;;;;;;;;;17.70;93.80;;;;;;5012892;28;19929;-57
2022/04/27 05:47:29;;;;;;;;;;;17.60;93.70;;;;;;4992697;28;20436;-57
2022/04/27 05:49:59;;;;;;;;;;;17.60;93.80;;;;;;4998533;28;19937;-57
2022/04/27 05:52:54;;;;;;;;;;;17.60;93.70;;;;;;5004032;28;19930;-59
2022/04/27 05:55:56;;;;;;;;;;;17.60;93.70;;;;;;4973083;28;19925;-56
2022/04/27 05:58:42;;;;;;;;;;;17.60;93.80;;;;;;5001874;28;19949;-56
2022/04/27 06:01:15;;;;;;;;;;;17.60;93.80;;;;;;5001445;28;19937;-57
2022/04/27 06:03:56;;;;;;;;;;;17.60;93.80;;;;;;5024465;28;20337;-59
2022/04/27 06:06:25;;;;;;;;;;;17.60;93.80;;;;;;5035800;28;20366;-56
2022/04/27 06:08:54;;;;;;;;;;;17.60;93.80;;;;;;5007400;28;19929;-54
2022/04/27 06:11:32;;;;;;;;;;;17.60;93.80;;;;;;4997354;28;19936;-58
2022/04/27 06:14:18;;;;;;;;;;;17.60;93.90;;;;;;5008905;28;19936;-58
2022/04/27 06:16:50;;;;;;;;;;;17.60;93.90;;;;;;5015897;28;19930;-58
2022/04/27 06:19:18;;;;;;;;;;;17.60;93.90;;;;;;5004825;28;19937;-55
2022/04/27 06:21:49;;;;;;;;;;;17.50;93.90;;;;;;5000589;28;19940;-58
2022/04/27 06:24:19;;;;;;;;;;;17.50;94.00;;;;;;5005796;28;19936;-54
2022/04/27 06:26:50;;;;;;;;;;;17.60;94.00;;;;;;4989352;28;19933;-57
2022/04/27 06:29:17;;;;;;;;;;;17.50;94.00;;;;;;5008664;28;19929;-59
2022/04/27 06:31:48;;;;;;;;;;;17.50;94.00;;;;;;5010603;28;19929;-56
2022/04/27 06:34:16;;;;;;;;;;;17.50;94.00;;;;;;5007056;28;19941;-61
2022/04/27 06:36:44;;;;;;;;;;;17.50;94.00;;;;;;5008418;28;20313;-57
2022/04/27 06:39:25;;;;;;;;;;;17.50;94.00;;;;;;4999500;28;20393;-56
2022/04/27 06:41:53;;;;;;;;;;;17.50;94.00;;;;;;5003451;28;19983;-55
2022/04/27 06:44:40;;;;;;;;;;;17.50;94.00;;;;;;4989090;28;20402;-57
2022/04/27 06:47:31;;;;;;;;;;;17.50;94.00;;;;;;5002571;28;19940;-58
2022/04/27 06:50:16;;;;;;;;;;;17.50;94.00;;;;;;5000325;28;19936;-54
2022/04/27 06:53:02;;;;;;;;;;;17.50;94.00;;;;;;4989799;28;19936;-58
2022/04/27 06:55:52;;;;;;;;;;;17.50;94.00;;;;;;4998932;28;19945;-53
2022/04/27 06:58:39;;;;;;;;;;;17.50;94.00;;;;;;5015716;28;20431;-58
2022/04/27 07:01:18;;;;;;;;;;;17.50;94.30;;;;;;5004829;28;19929;-59
2022/04/27 07:03:46;;;;;;;;;;;17.50;94.10;;;;;;5030958;28;20141;-58
2022/04/27 07:06:14;;;;;;;;;;;17.50;94.10;;;;;;4995013;28;19937;-58
2022/04/27 07:08:41;;;;;;;;;;;17.50;94.10;;;;;;4993881;28;19925;-59
2022/04/27 07:11:08;;;;;;;;;;;17.60;94.10;;;;;;5002561;28;19929;-57
2022/04/27 07:13:35;;;;;;;;;;;17.60;94.10;;;;;;4997830;28;20382;-55
2022/04/27 07:16:04;;;;;;;;;;;17.60;94.10;;;;;;5010193;28;20307;-55
2022/04/27 07:18:32;;;;;;;;;;;17.60;94.20;;;;;;5006526;28;19937;-54
2022/04/27 07:21:00;;;;;;;;;;;17.60;94.20;;;;;;5000904;28;19926;-56
2022/04/27 07:23:28;;;;;;;;;;;17.60;94.20;;;;;;4992524;28;20291;-57
2022/04/27 07:25:55;;;;;;;;;;;17.60;94.20;;;;;;5005139;28;20354;-55
2022/04/27 07:28:22;;;;;;;;;;;17.70;94.20;;;;;;5007758;28;20308;-58
2022/04/27 07:30:50;;;;;;;;;;;17.60;94.30;;;;;;5000090;28;20014;-56
2022/04/27 07:33:17;;;;;;;;;;;17.60;94.30;;;;;;4992463;28;19936;-58
2022/04/27 07:35:44;;;;;;;;;;;17.60;94.30;;;;;;4991552;28;19952;-57
2022/04/27 07:38:12;;;;;;;;;;;17.70;94.40;;;;;;4993520;28;19945;-54
2022/04/27 07:40:40;;;;;;;;;;;17.70;94.30;;;;;;4999523;28;19933;-58
2022/04/27 07:43:07;;;;;;;;;;;17.70;94.30;;;;;;4991621;28;20418;-57
2022/04/27 07:45:34;;;;;;;;;;;17.70;94.30;;;;;;5001356;28;19934;-55
2022/04/27 07:48:02;;;;;;;;;;;17.80;94.30;;;;;;5003228;28;19929;-55
2022/04/27 07:50:29;;;;;;;;;;;17.80;94.40;;;;;;4997439;28;19930;-57
2022/04/27 07:52:57;;;;;;;;;;;17.80;94.40;;;;;;5003431;28;19977;-56
2022/04/27 07:55:24;;;;;;;;;;;17.80;94.40;;;;;;4994249;28;19926;-57
2022/04/27 07:57:51;;;;;;;;;;;17.80;94.40;;;;;;5009498;28;20410;-57
2022/04/27 08:00:18;;;;;;;;;;;17.80;94.40;;;;;;4997201;28;19930;-56
2022/04/27 08:02:47;;;;;;;;;;;17.80;94.40;;;;;;4999301;28;19933;-58
2022/04/27 08:05:17;;;;;;;;;;;17.80;94.40;;;;;;5008694;28;19932;-57
2022/04/27 08:07:45;;;;;;;;;;;17.80;94.50;;;;;;5007142;28;19945;-57
2022/04/27 08:10:16;;;;;;;;;;;17.80;94.50;;;;;;4996078;28;19929;-58
2022/04/27 08:12:47;;;;;;;;;;;17.80;94.50;;;;;;5007046;28;19929;-56
2022/04/27 08:15:15;;;;;;;;;;;17.80;94.50;;;;;;5008015;28;19952;-58
2022/04/27 08:17:55;;;;;;;;;;;17.90;94.60;;;;;;4996937;28;19926;-57
2022/04/27 08:23:09;;;;;;;;;;;17.80;94.60;;;;;;4998363;28;20325;-55
2022/04/27 08:25:46;;;;;;;;;;;17.90;94.60;;;;;;4995134;28;20376;-60
2022/04/27 08:28:14;;;;;;;;;;;17.80;94.60;;;;;;4996770;28;20394;-56
2022/04/27 08:30:42;;;;;;;;;;;17.90;94.60;;;;;;4997352;28;19940;-57
2022/04/27 08:33:10;;;;;;;;;;;17.90;94.70;;;;;;5006708;28;19925;-57
2022/04/27 08:35:37;;;;;;;;;;;17.90;94.70;;;;;;5003548;28;19944;-58
2022/04/27 08:38:05;;;;;;;;;;;17.90;94.70;;;;;;5000925;28;20365;-56
2022/04/27 08:40:40;;;;;;;;;;;17.90;94.70;;;;;;4993195;28;20041;-57
2022/04/27 08:43:09;;;;;;;;;;;17.90;94.70;;;;;;5003966;28;19937;-56
2022/04/27 08:45:37;;;;;;;;;;;18.00;94.70;;;;;;5013671;28;20408;-58
2022/04/27 08:48:05;;;;;;;;;;;18.00;94.70;;;;;;5017867;28;20262;-58
2022/04/27 08:50:33;;;;;;;;;;;18.00;94.70;;;;;;5001090;28;19934;-58
2022/04/27 08:53:00;;;;;;;;;;;17.90;94.70;;;;;;4993485;28;20282;-59
2022/04/27 08:55:27;;;;;;;;;;;17.90;94.70;;;;;;5003473;28;20294;-56
2022/04/27 08:58:05;;;;;;;;;;;17.90;94.70;;;;;;5003055;28;19925;-57
2022/04/27 09:00:52;;;;;;;;;;;17.90;94.80;;;;;;4996204;28;19930;-56
2022/04/27 09:03:24;;;;;;;;;;;17.90;94.80;;;;;;4994043;28;19937;-57
2022/04/27 09:06:01;;;;;;;;;;;17.90;94.80;;;;;;4994016;28;20377;-55
2022/04/27 09:08:38;;;;;;;;;;;17.90;94.80;;;;;;4989375;28;19941;-54
2022/04/27 09:11:32;;;;;;;;;;;17.90;94.80;;;;;;4996314;28;20422;-58
2022/04/27 09:13:59;;;;;;;;;;;17.90;94.80;;;;;;5000465;28;19925;-59
2022/04/27 09:20:46;;;;;;;;;;;17.90;95.00;;;;;;5020679;28;19929;-58
2022/04/27 09:22:03;;;;;;;;;;;17.90;94.80;;;;;;5005381;28;19933;-57
2022/04/27 09:24:50;;;;;;;;;;;17.90;94.80;;;;;;4998631;28;19929;-58
2022/04/27 09:27:18;;;;;;;;;;;18.00;94.80;;;;;;5007510;28;19940;-59
2022/04/27 09:30:04;;;;;;;;;;;18.00;94.80;;;;;;4994567;28;19929;-59
2022/04/27 09:32:31;;;;;;;;;;;18.00;94.80;;;;;;5006605;28;19934;-58
2022/04/27 09:35:03;;;;;;;;;;;18.00;94.80;;;;;;4992113;28;19929;-57
2022/04/27 09:37:38;;;;;;;;;;;18.00;94.80;;;;;;5009302;28;19925;-56
2022/04/27 09:40:06;;;;;;;;;;;18.00;94.90;;;;;;5002518;28;19936;-58
2022/04/27 09:42:34;;;;;;;;;;;18.00;94.80;;;;;;4997570;28;19930;-58
2022/04/27 09:45:13;;;;;;;;;;;18.00;94.90;;;;;;5009584;28;19933;-58
2022/04/27 09:47:49;;;;;;;;;;;18.00;94.90;;;;;;5002588;28;19941;-56
2022/04/27 09:50:17;;;;;;;;;;;18.00;94.90;;;;;;4997150;28;19926;-59
2022/04/27 09:52:44;;;;;;;;;;;18.00;94.90;;;;;;5029279;28;19929;-57
2022/04/27 09:55:11;;;;;;;;;;;18.00;94.90;;;;;;4993634;28;19934;-57
2022/04/27 09:57:47;;;;;;;;;;;18.00;94.90;;;;;;5008422;28;19930;-56
2022/04/27 10:00:15;;;;;;;;;;;18.00;94.80;;;;;;5009042;28;19925;-57
2022/04/27 10:02:43;;;;;;;;;;;18.00;94.90;;;;;;4996346;28;20334;-56
2022/04/27 10:05:11;;;;;;;;;;;18.00;94.90;;;;;;5007189;28;20292;-57
2022/04/27 10:07:38;;;;;;;;;;;18.00;94.90;;;;;;5006966;28;19926;-58
2022/04/27 10:10:06;;;;;;;;;;;18.00;94.90;;;;;;5014993;28;19934;-60
2022/04/27 10:12:35;;;;;;;;;;;18.00;94.90;;;;;;5004094;28;19936;-58
2022/04/27 10:15:02;;;;;;;;;;;18.00;94.90;;;;;;5000052;28;20479;-57
2022/04/27 10:17:29;;;;;;;;;;;18.00;94.80;;;;;;5006098;28;19926;-54
2022/04/27 10:19:57;;;;;;;;;;;18.00;94.90;;;;;;4992388;28;19926;-55
2022/04/27 10:22:28;;;;;;;;;;;18.00;94.90;;;;;;4991703;28;19926;-54
2022/04/27 10:24:56;;;;;;;;;;;18.00;94.90;;;;;;5005628;28;19952;-54
2022/04/27 10:27:24;;;;;;;;;;;18.00;94.90;;;;;;5009579;28;19929;-56
2022/04/27 10:29:57;;;;;;;;;;;18.00;94.90;;;;;;5000260;28;19929;-57
2022/04/27 10:32:44;;;;;;;;;;;18.10;94.90;;;;;;5008592;28;19926;-57
2022/04/27 10:35:21;;;;;;;;;;;18.00;94.90;;;;;;4999420;28;19941;-58
2022/04/27 10:37:54;;;;;;;;;;;18.00;94.90;;;;;;5002164;28;19933;-58
2022/04/27 10:40:25;;;;;;;;;;;18.00;94.90;;;;;;5001880;28;19937;-60
2022/04/27 10:42:52;;;;;;;;;;;18.00;95.00;;;;;;5001824;28;19929;-56
2022/04/27 10:45:23;;;;;;;;;;;18.10;94.90;;;;;;5002839;28;20405;-58
2022/04/27 10:47:50;;;;;;;;;;;18.10;94.90;;;;;;5004006;28;19941;-58
2022/04/27 10:50:19;;;;;;;;;;;18.00;94.90;;;;;;4990319;28;19930;-57
2022/04/27 10:52:51;;;;;;;;;;;18.10;95.00;;;;;;5007356;28;19936;-57
2022/04/27 10:55:43;;;;;;;;;;;18.00;95.00;;;;;;4992368;28;19990;-57
2022/04/27 10:58:14;;;;;;;;;;;18.10;95.00;;;;;;5012847;28;20116;-58
2022/04/27 11:00:57;;;;;;;;;;;18.10;95.00;;;;;;4997115;28;19937;-59
2022/04/27 11:03:25;;;;;;;;;;;18.10;95.00;;;;;;4991556;28;19926;-57
2022/04/27 11:05:52;;;;;;;;;;;18.10;95.00;;;;;;5003450;28;19930;-58
2022/04/27 11:08:25;;;;;;;;;;;18.10;95.00;;;;;;5003206;28;20009;-58
2022/04/27 11:10:55;;;;;;;;;;;18.10;95.00;;;;;;4991638;28;19948;-55
2022/04/27 11:13:27;;;;;;;;;;;18.10;94.90;;;;;;5006354;28;19929;-58
2022/04/27 11:16:11;;;;;;;;;;;18.10;95.00;;;;;;5012167;28;19937;-60
2022/04/27 11:18:55;;;;;;;;;;;18.10;94.90;;;;;;5012530;28;20257;-53
2022/04/27 11:21:26;;;;;;;;;;;18.10;94.90;;;;;;5006048;28;19933;-55
2022/04/27 11:23:53;;;;;;;;;;;18.10;94.90;;;;;;5008020;28;20376;-58
2022/04/27 11:26:21;;;;;;;;;;;18.10;94.90;;;;;;5004943;28;19926;-57
2022/04/27 11:28:48;;;;;;;;;;;18.10;94.90;;;;;;4989231;28;19930;-58
2022/04/27 11:31:16;;;;;;;;;;;18.10;94.90;;;;;;4990447;28;19926;-60
2022/04/27 11:33:43;;;;;;;;;;;18.10;94.90;;;;;;5002674;28;19930;-55
2022/04/27 11:36:21;;;;;;;;;;;18.10;94.90;;;;;;5006474;28;19936;-54
2022/04/27 11:38:49;;;;;;;;;;;18.10;94.90;;;;;;5000944;28;19926;-56
2022/04/27 11:41:18;;;;;;;;;;;18.10;94.90;;;;;;5006994;28;19941;-61
2022/04/27 11:43:46;;;;;;;;;;;18.10;94.90;;;;;;5000478;28;19925;-58
2022/04/27 11:46:13;;;;;;;;;;;18.10;94.90;;;;;;5021955;28;19929;-59
2022/04/27 11:48:46;;;;;;;;;;;18.10;94.80;;;;;;5009728;28;19929;-58
2022/04/27 11:51:13;;;;;;;;;;;18.10;94.80;;;;;;4999597;28;20008;-57
2022/04/27 11:53:47;;;;;;;;;;;18.10;94.80;;;;;;5000069;28;19997;-57
2022/04/27 11:56:16;;;;;;;;;;;18.10;94.80;;;;;;5009816;28;19925;-61
2022/04/27 11:58:46;;;;;;;;;;;18.10;94.80;;;;;;4995615;28;20017;-52
2022/04/27 12:01:20;;;;;;;;;;;18.10;94.80;;;;;;4990639;28;19952;-57
2022/04/27 12:03:51;;;;;;;;;;;18.10;94.80;;;;;;4988569;28;19937;-56
2022/04/27 12:06:19;;;;;;;;;;;18.10;94.80;;;;;;4996520;28;19925;-58
2022/04/27 12:08:46;;;;;;;;;;;18.10;94.80;;;;;;4986672;28;19937;-58
2022/04/27 12:11:23;;;;;;;;;;;18.10;94.80;;;;;;5001357;28;19930;-57
2022/04/27 12:13:55;;;;;;;;;;;18.10;94.80;;;;;;4994894;28;20278;-59
2022/04/27 12:16:27;;;;;;;;;;;18.10;94.80;;;;;;5010897;28;19932;-58
2022/04/27 12:18:55;;;;;;;;;;;18.10;94.80;;;;;;4994688;28;19932;-59
2022/04/27 12:21:27;;;;;;;;;;;18.20;94.80;;;;;;5001135;28;19937;-56
2022/04/27 12:23:57;;;;;;;;;;;18.10;94.70;;;;;;5001940;28;20523;-57
2022/04/27 12:26:25;;;;;;;;;;;18.20;94.70;;;;;;4994010;28;19926;-55
2022/04/27 12:28:52;;;;;;;;;;;18.10;94.70;;;;;;5001221;28;19983;-59
2022/04/27 12:31:25;;;;;;;;;;;18.20;94.70;;;;;;5013585;28;19948;-58
2022/04/27 12:33:53;;;;;;;;;;;18.20;94.70;;;;;;4993011;28;19941;-59
2022/04/27 12:39:20;;;;;;;;;;;18.20;94.60;;;;;;4991934;28;19934;-57
2022/04/27 12:41:49;;;;;;;;;;;18.20;94.50;;;;;;4987031;28;19940;-59
2022/04/27 12:44:18;;;;;;;;;;;18.20;94.50;;;;;;4995733;28;19930;-56
2022/04/27 12:46:55;;;;;;;;;;;18.20;94.50;;;;;;5002886;28;19933;-58
2022/04/27 12:49:29;;;;;;;;;;;18.20;94.50;;;;;;4989201;28;19934;-58
2022/04/27 12:52:13;;;;;;;;;;;18.20;94.60;;;;;;5007534;28;20309;-57
2022/04/27 12:54:41;;;;;;;;;;;18.20;94.60;;;;;;5001205;28;19990;-57
2022/04/27 12:57:09;;;;;;;;;;;18.20;94.60;;;;;;5016816;28;19959;-59
2022/04/27 12:59:54;;;;;;;;;;;18.20;94.80;;;;;;4999211;28;19932;-58
2022/04/27 13:02:22;;;;;;;;;;;18.30;94.50;;;;;;5007916;28;20425;-60
2022/04/27 13:04:51;;;;;;;;;;;18.30;94.50;;;;;;4999367;28;19937;-59
2022/04/27 13:07:19;;;;;;;;;;;18.30;94.40;;;;;;5003766;28;19937;-58
2022/04/27 13:12:35;;;;;;;;;;;18.40;94.30;;;;;;5003299;28;19953;-59
2022/04/27 13:15:02;;;;;;;;;;;18.40;94.30;;;;;;5007328;28;19934;-53
2022/04/27 13:17:30;;;;;;;;;;;18.40;94.20;;;;;;4993972;28;19926;-58
2022/04/27 13:19:57;;;;;;;;;;;18.50;94.20;;;;;;5001992;28;19933;-57
2022/04/27 13:22:24;;;;;;;;;;;18.50;94.20;;;;;;5000144;28;20393;-59
2022/04/27 13:24:59;;;;;;;;;;;18.60;94.20;;;;;;5010932;28;19926;-59
2022/04/27 13:27:27;;;;;;;;;;;18.60;94.20;;;;;;5025441;28;19933;-57
2022/04/27 13:29:57;;;;;;;;;;;18.60;94.20;;;;;;5010003;28;19955;-56
2022/04/27 13:32:24;;;;;;;;;;;18.60;94.10;;;;;;4999101;28;20327;-57
2022/04/27 13:34:52;;;;;;;;;;;18.70;94.10;;;;;;4995250;28;19929;-58
2022/04/27 13:37:23;;;;;;;;;;;18.70;94.10;;;;;;4995508;28;20338;-58
2022/04/27 13:39:50;;;;;;;;;;;18.70;94.10;;;;;;4994523;28;19934;-58
2022/04/27 13:42:18;;;;;;;;;;;18.70;94.10;;;;;;5011980;28;19930;-59
2022/04/27 13:44:45;;;;;;;;;;;18.80;94.00;;;;;;5003964;28;19932;-58
2022/04/27 13:47:12;;;;;;;;;;;18.80;94.00;;;;;;4995519;28;20353;-59
2022/04/27 13:49:40;;;;;;;;;;;18.80;93.90;;;;;;5002297;28;19933;-57
2022/04/27 13:52:08;;;;;;;;;;;18.90;93.80;;;;;;4990941;28;19930;-56
2022/04/27 13:54:38;;;;;;;;;;;18.90;93.80;;;;;;4999012;28;19929;-56
2022/04/27 13:57:05;;;;;;;;;;;18.90;93.70;;;;;;5010758;28;19932;-55
2022/04/27 13:59:32;;;;;;;;;;;19.00;93.70;;;;;;5018965;28;19940;-56
2022/04/27 14:02:03;;;;;;;;;;;19.00;93.60;;;;;;5001939;28;19952;-60
2022/04/27 14:04:31;;;;;;;;;;;19.10;93.60;;;;;;4994636;28;19925;-59
2022/04/27 14:06:58;;;;;;;;;;;19.10;93.50;;;;;;4990705;28;20298;-57
2022/04/27 14:09:26;;;;;;;;;;;19.10;93.50;;;;;;4994028;28;19936;-54
2022/04/27 14:14:39;;;;;;;;;;;19.20;93.40;;;;;;4999280;28;19941;-57
2022/04/27 14:19:53;;;;;;;;;;;19.30;93.30;;;;;;4996244;28;19960;-58
2022/04/27 14:22:22;;;;;;;;;;;19.30;93.30;;;;;;5004828;28;19926;-60
2022/04/27 14:24:49;;;;;;;;;;;19.30;93.20;;;;;;4999002;28;19929;-61
2022/04/27 14:27:16;;;;;;;;;;;19.30;93.20;;;;;;5008747;28;19936;-55
2022/04/27 14:29:44;;;;;;;;;;;19.40;93.20;;;;;;5001156;28;19937;-59
2022/04/27 14:32:11;;;;;;;;;;;19.40;93.20;;;;;;4996287;28;19930;-57
2022/04/27 14:34:38;;;;;;;;;;;19.30;93.20;;;;;;5005802;28;19930;-58
2022/04/27 14:37:06;;;;;;;;;;;19.30;93.30;;;;;;4998134;28;19933;-56
2022/04/27 14:39:33;;;;;;;;;;;19.40;93.20;;;;;;4993001;28;19934;-58
2022/04/27 14:42:00;;;;;;;;;;;19.40;93.30;;;;;;4990172;28;19932;-59
2022/04/27 14:44:28;;;;;;;;;;;19.30;93.40;;;;;;4998952;28;20244;-55
2022/04/27 14:46:56;;;;;;;;;;;19.20;93.40;;;;;;4995965;28;19929;-55
2022/04/27 14:49:24;;;;;;;;;;;19.20;93.40;;;;;;4997207;28;19930;-59
2022/04/27 14:51:51;;;;;;;;;;;19.30;93.40;;;;;;4988932;28;19930;-59
2022/04/27 14:54:18;;;;;;;;;;;19.30;93.40;;;;;;4993070;28;19937;-56
2022/04/27 14:56:45;;;;;;;;;;;19.20;93.40;;;;;;4990755;28;19950;-64
2022/04/27 14:59:12;;;;;;;;;;;19.20;93.40;;;;;;5016442;28;19933;-57
2022/04/27 15:01:41;;;;;;;;;;;19.30;93.40;;;;;;5003138;28;19937;-59
2022/04/27 15:04:08;;;;;;;;;;;19.40;93.30;;;;;;5002288;28;19929;-58
2022/04/27 15:06:36;;;;;;;;;;;19.50;93.20;;;;;;5006112;28;19926;-58
2022/04/27 15:09:03;;;;;;;;;;;19.60;93.10;;;;;;4990002;28;19934;-55
2022/04/27 15:11:31;;;;;;;;;;;19.60;93.00;;;;;;5002804;28;20100;-55